Time;durP1;ratioP1;P1;durP2;ratioP2;P2;SDS_P1;SDS_P2;PMS_P1;PMS_P2;Temp;Humidity;BMP_temperature;BMP_pressure;BME280_temperature;BME280_humidity;BME280_pressure;Samples;Min_cycle;Max_cycle;Signal;HPM_P1;HPM_P2
2022/08/21 00:00:43;;;;;;;;;;;;;;;25.56;49.43;99768.41;2027526;29;19998;-42
2022/08/21 00:01:44;;;;;;;;;;;;;;;25.55;49.45;99761.22;2027945;29;20432;-42
2022/08/21 00:02:50;;;;;;;;;;;;;;;25.54;49.50;99753.97;2035221;29;20509;-43
2022/08/21 00:03:50;;;;;;;;;;;;;;;25.56;49.47;99751.00;2036475;29;20629;-43
2022/08/21 00:04:51;;;;;;;;;;;;;;;25.55;49.23;99755.69;2036537;29;20026;-42
2022/08/21 00:05:52;;;;;;;;;;;;;;;25.55;49.19;99755.69;2035273;29;19973;-42
2022/08/21 00:06:52;;;;;;;;;;;;;;;25.54;49.22;99753.97;2035699;29;20419;-43
2022/08/21 00:07:53;;;;;;;;;;;;;;;25.56;49.47;99754.63;2038434;29;20328;-43
2022/08/21 00:08:53;;;;;;;;;;;;;;;25.55;49.45;99760.31;2039022;29;19907;-42
2022/08/21 00:09:54;;;;;;;;;;;;;;;25.55;49.49;99754.81;2019962;29;20013;-42
2022/08/21 00:10:54;;;;;;;;;;;;;;;25.56;49.38;99759.28;2006758;29;19923;-43
2022/08/21 00:11:55;;;;;;;;;;;;;;;25.55;49.24;99749.28;2027757;29;20016;-42
2022/08/21 00:12:55;;;;;;;;;;;;;;;25.54;49.22;99748.44;2034726;29;19930;-43
2022/08/21 00:13:55;;;;;;;;;;;;;;;25.56;49.19;99751.00;2035239;29;19914;-45
2022/08/21 00:14:56;;;;;;;;;;;;;;;25.55;49.29;99754.81;2026602;29;19923;-42
2022/08/21 00:15:56;;;;;;;;;;;;;;;25.55;49.38;99752.94;2027972;29;19919;-44
2022/08/21 00:16:56;;;;;;;;;;;;;;;25.55;49.42;99755.69;2035315;29;20013;-42
2022/08/21 00:17:58;;;;;;;;;;;;;;;25.55;49.48;99750.16;2027895;29;20444;-42
2022/08/21 00:18:59;;;;;;;;;;;;;;;25.55;49.20;99755.69;2025220;29;20014;-42
2022/08/21 00:19:59;;;;;;;;;;;;;;;25.55;49.34;99749.28;2033950;29;20695;-43
2022/08/21 00:21:00;;;;;;;;;;;;;;;25.54;49.41;99742.91;2035683;29;19919;-42
2022/08/21 00:22:00;;;;;;;;;;;;;;;25.54;49.33;99745.69;2039152;29;19918;-42
2022/08/21 00:23:00;;;;;;;;;;;;;;;25.55;49.43;99739.13;2037283;29;19954;-42
2022/08/21 00:24:01;;;;;;;;;;;;;;;25.55;49.19;99741.88;2034635;29;20454;-42
2022/08/21 00:25:02;;;;;;;;;;;;;;;25.54;49.28;99731.88;2024245;29;19926;-42
2022/08/21 00:26:03;;;;;;;;;;;;;;;25.55;49.35;99733.59;2027255;29;20177;-43
2022/08/21 00:27:03;;;;;;;;;;;;;;;25.54;49.36;99740.16;2027378;29;19919;-43
2022/08/21 00:28:04;;;;;;;;;;;;;;;25.55;49.55;99729.97;2026608;29;19915;-43
2022/08/21 00:29:04;;;;;;;;;;;;;;;25.54;49.20;99723.59;2036194;29;19907;-41
2022/08/21 00:30:05;;;;;;;;;;;;;;;25.54;49.48;99726.38;2035464;29;19980;-43
2022/08/21 00:31:06;;;;;;;;;;;;;;;25.53;49.19;99730.19;2035588;29;19977;-43
2022/08/21 00:32:06;;;;;;;;;;;;;;;25.53;49.46;99721.91;2037250;29;19919;-42
2022/08/21 00:33:08;;;;;;;;;;;;;;;25.54;49.46;99726.38;2038804;29;20380;-42
2022/08/21 00:34:08;;;;;;;;;;;;;;;25.53;49.44;99726.56;2037156;29;19918;-44
2022/08/21 00:35:12;;;;;;;;;;;;;;;25.53;49.26;99730.19;2036257;29;19919;-43
2022/08/21 00:36:13;;;;;;;;;;;;;;;25.53;49.23;99727.44;2034776;29;19919;-43
2022/08/21 00:37:13;;;;;;;;;;;;;;;25.53;49.25;99726.56;2037019;29;19911;-42
2022/08/21 00:38:14;;;;;;;;;;;;;;;25.53;49.49;99724.69;2041583;29;19914;-42
2022/08/21 00:39:14;;;;;;;;;;;;;;;25.52;49.67;99722.94;2036239;29;20472;-46
2022/08/21 00:40:16;;;;;;;;;;;;;;;25.51;49.57;99724.00;2029602;29;19919;-43
2022/08/21 00:41:17;;;;;;;;;;;;;;;25.52;49.49;99722.09;2035060;29;19923;-43
2022/08/21 00:42:17;;;;;;;;;;;;;;;25.52;49.30;99724.88;2035840;29;20422;-46
2022/08/21 00:43:20;;;;;;;;;;;;;;;25.52;49.49;99722.94;2035956;29;20025;-45
2022/08/21 00:44:21;;;;;;;;;;;;;;;25.53;49.30;99724.69;2027291;29;19966;-42
2022/08/21 00:45:22;;;;;;;;;;;;;;;25.52;49.28;99722.09;2028270;29;19910;-43
2022/08/21 00:46:22;;;;;;;;;;;;;;;25.51;49.53;99721.25;2038793;29;20429;-42
2022/08/21 00:47:23;;;;;;;;;;;;;;;25.51;49.32;99718.50;2037109;29;19950;-42
2022/08/21 00:48:24;;;;;;;;;;;;;;;25.52;49.43;99728.47;2029790;29;19919;-43
2022/08/21 00:49:24;;;;;;;;;;;;;;;25.52;49.42;99722.09;2027848;29;19919;-42
2022/08/21 00:50:27;;;;;;;;;;;;;;;25.51;49.47;99724.00;2034319;29;19982;-42
2022/08/21 00:51:41;;;;;;;;;;;;;;;25.51;49.34;99718.50;2035988;29;19923;-44
2022/08/21 00:52:41;;;;;;;;;;;;;;;25.53;49.30;99729.31;2032123;29;19997;-42
2022/08/21 00:53:43;;;;;;;;;;;;;;;25.53;49.49;99723.78;2025998;29;19926;-42
2022/08/21 00:54:44;;;;;;;;;;;;;;;25.52;49.41;99719.34;2028864;29;19930;-43
2022/08/21 00:55:45;;;;;;;;;;;;;;;25.53;49.58;99719.16;2035057;29;19925;-42
2022/08/21 00:56:51;;;;;;;;;;;;;;;25.52;49.30;99728.47;2035431;29;20352;-44
2022/08/21 00:57:54;;;;;;;;;;;;;;;25.53;49.43;99724.69;2035184;29;20356;-43
2022/08/21 00:58:55;;;;;;;;;;;;;;;25.51;49.28;99718.50;2038548;29;19939;-42
2022/08/21 00:59:58;;;;;;;;;;;;;;;25.51;49.49;99715.75;2028611;29;19923;-44
2022/08/21 01:00:59;;;;;;;;;;;;;;;25.52;49.33;99719.34;2032594;29;19929;-42
2022/08/21 01:01:59;;;;;;;;;;;;;;;25.52;49.49;99722.94;2025923;29;20448;-43
2022/08/21 01:03:01;;;;;;;;;;;;;;;25.51;49.44;99718.50;2035044;29;19959;-43
2022/08/21 01:04:02;;;;;;;;;;;;;;;25.53;49.52;99723.78;2037417;29;19919;-42
2022/08/21 01:05:02;;;;;;;;;;;;;;;25.51;49.27;99715.75;2034892;29;20321;-47
2022/08/21 01:06:04;;;;;;;;;;;;;;;25.52;49.39;99711.06;2038316;29;19948;-44
2022/08/21 01:07:04;;;;;;;;;;;;;;;25.51;49.53;99715.75;2035374;29;19917;-43
2022/08/21 01:08:05;;;;;;;;;;;;;;;25.51;49.34;99715.75;2028463;29;19919;-44
2022/08/21 01:09:06;;;;;;;;;;;;;;;25.50;49.30;99708.50;2029610;29;19919;-46
2022/08/21 01:10:07;;;;;;;;;;;;;;;25.50;49.34;99714.00;2035789;29;19930;-46
2022/08/21 01:11:07;;;;;;;;;;;;;;;25.51;49.34;99710.22;2034997;29;19953;-42
2022/08/21 01:12:08;;;;;;;;;;;;;;;25.50;49.32;99714.00;2035762;29;20743;-42
2022/08/21 01:13:10;;;;;;;;;;;;;;;25.51;49.54;99712.13;2036202;29;19918;-44
2022/08/21 01:14:12;;;;;;;;;;;;;;;25.50;49.35;99708.50;2036752;29;20062;-44
2022/08/21 01:15:15;;;;;;;;;;;;;;;25.49;49.42;99706.81;2036315;29;19914;-42
2022/08/21 01:16:18;;;;;;;;;;;;;;;25.49;49.44;99709.56;2036094;29;19927;-42
2022/08/21 01:17:20;;;;;;;;;;;;;;;25.49;49.52;99712.31;2039457;29;20331;-42
2022/08/21 01:18:21;;;;;;;;;;;;;;;25.48;49.39;99710.63;2034465;29;20435;-43
2022/08/21 01:19:21;;;;;;;;;;;;;;;25.48;49.29;99713.38;2030973;29;19919;-42
2022/08/21 01:20:21;;;;;;;;;;;;;;;25.49;49.38;99711.47;2032321;29;19919;-43
2022/08/21 01:21:23;;;;;;;;;;;;;;;25.49;49.40;99701.28;2036321;29;19918;-43
2022/08/21 01:22:24;;;;;;;;;;;;;;;25.48;49.46;99710.63;2041032;29;20014;-44
2022/08/21 01:23:24;;;;;;;;;;;;;;;25.48;49.58;99710.63;2035734;29;19915;-44
2022/08/21 01:24:25;;;;;;;;;;;;;;;25.49;49.42;99712.31;2035460;29;19969;-42
2022/08/21 01:25:25;;;;;;;;;;;;;;;25.48;49.34;99707.88;2036274;29;20455;-43
2022/08/21 01:26:27;;;;;;;;;;;;;;;25.48;49.53;99705.09;2035208;29;20355;-42
2022/08/21 01:27:28;;;;;;;;;;;;;;;25.48;49.38;99701.47;2032330;29;19918;-43
2022/08/21 01:28:31;;;;;;;;;;;;;;;25.49;49.54;99705.97;2029074;29;19923;-43
2022/08/21 01:29:39;;;;;;;;;;;;;;;25.48;49.67;99696.84;2035700;29;20378;-42
2022/08/21 01:30:41;;;;;;;;;;;;;;;25.48;49.40;99699.59;2026508;29;20688;-46
2022/08/21 01:31:42;;;;;;;;;;;;;;;25.49;49.53;99706.81;2028545;29;19919;-42
2022/08/21 01:32:42;;;;;;;;;;;;;;;25.49;49.28;99700.44;2034322;29;19919;-42
2022/08/21 01:33:43;;;;;;;;;;;;;;;25.49;49.32;99704.03;2034586;29;19919;-43
2022/08/21 01:34:44;;;;;;;;;;;;;;;25.49;49.25;99704.03;2033859;29;20017;-43
2022/08/21 01:35:44;;;;;;;;;;;;;;;25.49;49.36;99705.97;2036604;29;19918;-45
2022/08/21 01:36:45;;;;;;;;;;;;;;;25.49;49.58;99706.81;2035370;29;20501;-45
2022/08/21 01:37:46;;;;;;;;;;;;;;;25.49;49.32;99704.03;2037635;29;19922;-43
2022/08/21 01:38:47;;;;;;;;;;;;;;;25.49;49.58;99700.44;2038682;29;19927;-42
2022/08/21 01:39:47;;;;;;;;;;;;;;;25.49;49.53;99706.81;2034265;29;20285;-42
2022/08/21 01:40:48;;;;;;;;;;;;;;;25.49;49.36;99701.28;2030337;29;20566;-42
2022/08/21 01:41:48;;;;;;;;;;;;;;;25.48;49.58;99699.59;2041122;29;20526;-43
2022/08/21 01:42:48;;;;;;;;;;;;;;;25.48;49.47;99705.09;2036457;29;19918;-44
2022/08/21 01:43:49;;;;;;;;;;;;;;;25.49;49.58;99709.56;2040384;29;20423;-43
2022/08/21 01:44:49;;;;;;;;;;;;;;;25.49;49.40;99712.31;2034001;29;19918;-42
2022/08/21 01:45:50;;;;;;;;;;;;;;;25.48;49.53;99699.59;2033596;29;19919;-43
2022/08/21 01:46:51;;;;;;;;;;;;;;;25.49;49.43;99712.31;2033107;29;20452;-42
2022/08/21 01:47:51;;;;;;;;;;;;;;;25.49;49.39;99711.47;2032717;29;20476;-43
2022/08/21 01:48:52;;;;;;;;;;;;;;;25.49;49.34;99711.47;2035458;29;20017;-42
2022/08/21 01:49:52;;;;;;;;;;;;;;;25.49;49.59;99709.56;2034845;29;19942;-42
2022/08/21 01:50:53;;;;;;;;;;;;;;;25.49;49.51;99715.09;2036363;29;19914;-42
2022/08/21 01:51:53;;;;;;;;;;;;;;;25.47;49.36;99708.91;2035418;29;19919;-43
2022/08/21 01:52:54;;;;;;;;;;;;;;;25.49;49.36;99717.00;2035711;29;20013;-43
2022/08/21 01:53:54;;;;;;;;;;;;;;;25.48;49.29;99715.28;2032699;29;20420;-43
2022/08/21 01:54:54;;;;;;;;;;;;;;;25.47;49.40;99717.19;2033990;29;20998;-42
2022/08/21 01:55:55;;;;;;;;;;;;;;;25.48;49.39;99721.66;2034287;29;20455;-43
2022/08/21 01:56:56;;;;;;;;;;;;;;;25.47;49.44;99714.44;2034847;29;19922;-44
2022/08/21 01:57:57;;;;;;;;;;;;;;;25.47;49.77;99710.81;2034562;29;19933;-44
2022/08/21 01:58:57;;;;;;;;;;;;;;;25.47;49.53;99708.91;2034453;29;19926;-43
2022/08/21 01:59:58;;;;;;;;;;;;;;;25.47;49.36;99714.44;2034734;29;20105;-43
2022/08/21 02:01:01;;;;;;;;;;;;;;;25.46;49.40;99712.72;2032289;29;20349;-44
2022/08/21 02:02:01;;;;;;;;;;;;;;;25.47;49.38;99710.81;2034719;29;19922;-43
2022/08/21 02:03:02;;;;;;;;;;;;;;;25.47;49.47;99713.56;2033272;29;19998;-45
2022/08/21 02:04:02;;;;;;;;;;;;;;;25.46;49.41;99718.25;2027032;29;19915;-43
2022/08/21 02:05:03;;;;;;;;;;;;;;;25.46;49.38;99707.22;2025427;29;20028;-42
2022/08/21 02:06:05;;;;;;;;;;;;;;;25.46;49.65;99712.72;2034428;29;20367;-42
2022/08/21 02:07:06;;;;;;;;;;;;;;;25.47;49.40;99719.09;2032046;29;19970;-43
2022/08/21 02:08:07;;;;;;;;;;;;;;;25.47;49.37;99719.09;2034574;29;19915;-43
2022/08/21 02:09:08;;;;;;;;;;;;;;;25.47;49.42;99719.94;2032353;29;19922;-43
2022/08/21 02:10:09;;;;;;;;;;;;;;;25.46;49.48;99723.78;2030868;29;19945;-42
2022/08/21 02:11:09;;;;;;;;;;;;;;;25.47;49.52;99728.22;2024532;29;19923;-43
2022/08/21 02:12:10;;;;;;;;;;;;;;;25.46;49.51;99718.25;2027497;29;19922;-43
2022/08/21 02:13:10;;;;;;;;;;;;;;;25.46;49.33;99712.72;2031595;29;20273;-43
2022/08/21 02:14:12;;;;;;;;;;;;;;;25.46;49.38;99718.25;2034674;29;19919;-43
2022/08/21 02:15:13;;;;;;;;;;;;;;;25.46;49.35;99718.25;2037596;29;19930;-42
2022/08/21 02:16:14;;;;;;;;;;;;;;;25.48;49.30;99715.28;2025843;29;19967;-45
2022/08/21 02:17:14;;;;;;;;;;;;;;;25.46;49.39;99718.25;2026777;29;19945;-42
2022/08/21 02:18:15;;;;;;;;;;;;;;;25.47;49.58;99713.56;2028915;29;19930;-42
2022/08/21 02:19:16;;;;;;;;;;;;;;;25.47;49.30;99713.56;2034798;29;20064;-43
2022/08/21 02:20:20;;;;;;;;;;;;;;;25.47;49.32;99719.09;2033235;29;20229;-45
2022/08/21 02:21:20;;;;;;;;;;;;;;;25.47;49.59;99725.47;2033890;29;20609;-42
2022/08/21 02:22:20;;;;;;;;;;;;;;;25.46;49.46;99721.00;2032710;29;20066;-43
2022/08/21 02:23:20;;;;;;;;;;;;;;;25.47;49.46;99722.69;2039251;29;20395;-44
2022/08/21 02:24:21;;;;;;;;;;;;;;;25.45;49.39;99717.41;2034313;29;19934;-43
2022/08/21 02:25:22;;;;;;;;;;;;;;;25.46;49.36;99723.78;2034341;29;20651;-43
2022/08/21 02:26:22;;;;;;;;;;;;;;;25.46;49.61;99718.25;2033682;29;19923;-43
2022/08/21 02:27:23;;;;;;;;;;;;;;;25.46;49.34;99721.00;2030753;29;20340;-42
2022/08/21 02:28:23;;;;;;;;;;;;;;;25.47;49.56;99719.94;2019106;29;19931;-43
2022/08/21 02:29:24;;;;;;;;;;;;;;;25.47;49.55;99719.94;2025505;29;20831;-44
2022/08/21 02:30:26;;;;;;;;;;;;;;;25.46;49.42;99726.53;2034038;29;19926;-44
2022/08/21 02:31:27;;;;;;;;;;;;;;;25.46;49.61;99721.00;2032149;29;20003;-43
2022/08/21 02:32:27;;;;;;;;;;;;;;;25.46;49.41;99723.78;2034967;29;19919;-43
2022/08/21 02:33:28;;;;;;;;;;;;;;;25.46;49.50;99718.25;2033351;29;19966;-44
2022/08/21 02:34:28;;;;;;;;;;;;;;;25.45;49.40;99722.91;2034546;29;20347;-43
2022/08/21 02:35:29;;;;;;;;;;;;;;;25.45;49.45;99727.56;2027079;29;19926;-42
2022/08/21 02:36:29;;;;;;;;;;;;;;;25.45;49.63;99722.03;2028935;29;20695;-44
2022/08/21 02:37:29;;;;;;;;;;;;;;;25.45;49.46;99728.44;2033996;29;19923;-43
2022/08/21 02:38:33;;;;;;;;;;;;;;;25.44;49.41;99723.97;2034194;29;19919;-43
2022/08/21 02:39:33;;;;;;;;;;;;;;;25.45;49.55;99728.44;2033106;29;19922;-42
2022/08/21 02:40:34;;;;;;;;;;;;;;;25.43;49.54;99718.66;2042128;29;19997;-42
2022/08/21 02:41:35;;;;;;;;;;;;;;;25.43;49.48;99719.50;2029896;29;19929;-43
2022/08/21 02:42:36;;;;;;;;;;;;;;;25.43;49.30;99724.19;2034431;29;20665;-43
2022/08/21 02:43:36;;;;;;;;;;;;;;;25.43;49.51;99719.50;2032711;29;19927;-42
2022/08/21 02:44:36;;;;;;;;;;;;;;;25.43;49.44;99721.41;2027402;29;19927;-43
2022/08/21 02:45:37;;;;;;;;;;;;;;;25.45;49.54;99735.84;2023389;29;19919;-42
2022/08/21 02:46:38;;;;;;;;;;;;;;;25.42;49.40;99720.53;2033446;29;19969;-43
2022/08/21 02:47:46;;;;;;;;;;;;;;;25.42;49.35;99730.72;2035394;29;22114;-43
2022/08/21 02:48:46;;;;;;;;;;;;;;;25.43;49.52;99729.69;2036041;29;19934;-44
2022/08/21 02:49:47;;;;;;;;;;;;;;;25.43;49.41;99719.50;2027084;29;20451;-42
2022/08/21 02:50:51;;;;;;;;;;;;;;;25.43;49.33;99725.03;2019349;29;19919;-43
2022/08/21 02:51:51;;;;;;;;;;;;;;;25.44;49.40;99728.63;2034550;29;20402;-43
2022/08/21 02:52:52;;;;;;;;;;;;;;;25.44;49.50;99725.88;2032669;29;20248;-42
2022/08/21 02:53:52;;;;;;;;;;;;;;;25.43;49.48;99732.47;2034986;29;20142;-42
2022/08/21 02:54:53;;;;;;;;;;;;;;;25.44;49.51;99725.88;2032197;29;19915;-42
2022/08/21 02:55:54;;;;;;;;;;;;;;;25.44;49.50;99725.88;2034255;29;19973;-42
2022/08/21 02:56:54;;;;;;;;;;;;;;;25.43;49.51;99724.19;2033980;29;20172;-43
2022/08/21 02:57:55;;;;;;;;;;;;;;;25.43;49.52;99724.19;2033270;29;19918;-42
2022/08/21 02:58:55;;;;;;;;;;;;;;;25.43;49.44;99716.75;2033975;29;20353;-43
2022/08/21 02:59:56;;;;;;;;;;;;;;;25.43;49.51;99713.13;2032759;29;19952;-42
2022/08/21 03:00:56;;;;;;;;;;;;;;;25.44;49.47;99720.34;2035120;29;20052;-43
2022/08/21 03:01:56;;;;;;;;;;;;;;;25.44;49.27;99720.34;2021852;29;20385;-42
2022/08/21 03:02:57;;;;;;;;;;;;;;;25.45;49.23;99722.03;2025074;29;19929;-42
2022/08/21 03:03:57;;;;;;;;;;;;;;;25.44;49.44;99721.19;2033262;29;20359;-42
2022/08/21 03:04:58;;;;;;;;;;;;;;;25.43;49.33;99718.66;2034185;29;19969;-42
2022/08/21 03:05:58;;;;;;;;;;;;;;;25.43;49.28;99715.91;2035941;29;19957;-42
2022/08/21 03:06:59;;;;;;;;;;;;;;;25.42;49.58;99720.53;2035524;29;20362;-43
2022/08/21 03:08:01;;;;;;;;;;;;;;;25.44;49.55;99725.88;2030912;29;19914;-43
2022/08/21 03:09:02;;;;;;;;;;;;;;;25.43;49.43;99721.41;2033097;29;19923;-42
2022/08/21 03:10:05;;;;;;;;;;;;;;;25.43;49.43;99714.00;2031394;29;20006;-42
2022/08/21 03:11:06;;;;;;;;;;;;;;;25.43;49.55;99718.66;2032504;29;19930;-43
2022/08/21 03:12:06;;;;;;;;;;;;;;;25.44;49.48;99720.34;2034184;29;19922;-42
2022/08/21 03:13:07;;;;;;;;;;;;;;;25.42;49.50;99722.44;2032752;29;19925;-41
2022/08/21 03:14:08;;;;;;;;;;;;;;;25.42;49.42;99722.44;2034808;29;20211;-42
2022/08/21 03:15:14;;;;;;;;;;;;;;;25.42;49.40;99722.44;2023798;29;20019;-42
2022/08/21 03:16:14;;;;;;;;;;;;;;;25.43;49.30;99721.41;2026070;29;19919;-41
2022/08/21 03:17:15;;;;;;;;;;;;;;;25.42;49.34;99722.44;2034776;29;20380;-42
2022/08/21 03:18:15;;;;;;;;;;;;;;;25.42;49.31;99727.97;2036897;29;19969;-42
2022/08/21 03:19:15;;;;;;;;;;;;;;;25.41;49.33;99720.75;2032883;29;19923;-43
2022/08/21 03:20:17;;;;;;;;;;;;;;;25.41;49.42;99729.03;2033479;29;20525;-43
2022/08/21 03:21:18;;;;;;;;;;;;;;;25.41;49.28;99729.03;2032403;29;19965;-42
2022/08/21 03:22:19;;;;;;;;;;;;;;;25.41;49.57;99715.25;2033770;29;19919;-42
2022/08/21 03:23:19;;;;;;;;;;;;;;;25.41;49.37;99720.75;2030159;29;19954;-42
2022/08/21 03:24:19;;;;;;;;;;;;;;;25.40;49.54;99724.56;2031819;29;19957;-46
2022/08/21 03:25:21;;;;;;;;;;;;;;;25.41;49.31;99726.28;2034872;29;20497;-45
2022/08/21 03:26:21;;;;;;;;;;;;;;;25.41;49.35;99723.53;2033734;29;20697;-42
2022/08/21 03:27:21;;;;;;;;;;;;;;;25.40;49.50;99724.56;2033901;29;19922;-42
2022/08/21 03:28:22;;;;;;;;;;;;;;;25.41;49.54;99720.75;2026899;29;19919;-42
2022/08/21 03:29:22;;;;;;;;;;;;;;;25.40;49.34;99719.88;2027229;29;20315;-42
2022/08/21 03:30:22;;;;;;;;;;;;;;;25.41;49.37;99723.53;2032355;29;19915;-42
2022/08/21 03:31:23;;;;;;;;;;;;;;;25.39;49.36;99723.72;2034589;29;19974;-43
2022/08/21 03:32:23;;;;;;;;;;;;;;;25.40;49.41;99730.91;2033235;29;20549;-43
2022/08/21 03:33:24;;;;;;;;;;;;;;;25.41;49.49;99726.28;2032618;29;20026;-42
2022/08/21 03:34:24;;;;;;;;;;;;;;;25.40;49.43;99724.56;2030936;29;19919;-44
2022/08/21 03:35:25;;;;;;;;;;;;;;;25.41;49.51;99727.13;2033202;29;20431;-43
2022/08/21 03:36:26;;;;;;;;;;;;;;;25.41;49.43;99729.03;2032131;29;19957;-44
2022/08/21 03:37:26;;;;;;;;;;;;;;;25.41;49.26;99729.03;2034135;29;20058;-42
2022/08/21 03:38:27;;;;;;;;;;;;;;;25.42;49.37;99730.72;2026010;29;19999;-44
2022/08/21 03:39:28;;;;;;;;;;;;;;;25.41;49.33;99726.28;2024859;29;19923;-43
2022/08/21 03:40:28;;;;;;;;;;;;;;;25.41;49.39;99726.28;2034095;29;19911;-43
2022/08/21 03:41:29;;;;;;;;;;;;;;;25.42;49.31;99725.22;2032283;29;19930;-41
2022/08/21 03:42:29;;;;;;;;;;;;;;;25.41;49.21;99723.53;2034236;29;19988;-41
2022/08/21 03:43:30;;;;;;;;;;;;;;;25.41;49.47;99723.53;2034702;29;20017;-42
2022/08/21 03:44:30;;;;;;;;;;;;;;;25.41;49.29;99724.38;2034066;29;19981;-44
2022/08/21 03:45:32;;;;;;;;;;;;;;;25.41;49.22;99726.28;2034403;29;19922;-42
2022/08/21 03:46:32;;;;;;;;;;;;;;;25.41;49.28;99726.28;2037710;29;20074;-42
2022/08/21 03:47:33;;;;;;;;;;;;;;;25.40;49.23;99719.03;2034224;29;20400;-43
2022/08/21 03:48:34;;;;;;;;;;;;;;;25.42;49.41;99727.97;2034818;29;20614;-43
2022/08/21 03:49:35;;;;;;;;;;;;;;;25.41;49.49;99718.00;2034224;29;19943;-42
2022/08/21 03:50:38;;;;;;;;;;;;;;;25.42;49.64;99722.44;2041433;29;19929;-43
2022/08/21 03:51:38;;;;;;;;;;;;;;;25.41;49.46;99716.09;2025632;29;19924;-42
2022/08/21 03:52:38;;;;;;;;;;;;;;;25.41;49.45;99718.00;2024475;29;20605;-43
2022/08/21 03:53:39;;;;;;;;;;;;;;;25.41;49.30;99720.75;2029602;29;20997;-43
2022/08/21 03:54:41;;;;;;;;;;;;;;;25.40;49.47;99717.13;2026997;29;20344;-43
2022/08/21 03:55:41;;;;;;;;;;;;;;;25.40;49.53;99714.38;2025752;29;19930;-49
2022/08/21 03:56:41;;;;;;;;;;;;;;;25.39;49.29;99718.19;2028403;29;20563;-43
2022/08/21 03:57:42;;;;;;;;;;;;;;;25.40;49.28;99725.41;2032481;29;20412;-42
2022/08/21 03:58:42;;;;;;;;;;;;;;;25.40;49.44;99713.53;2034661;29;19918;-43
2022/08/21 03:59:43;;;;;;;;;;;;;;;25.40;49.45;99719.03;2034081;29;19934;-42
2022/08/21 04:00:44;;;;;;;;;;;;;;;25.40;49.49;99724.56;2033307;29;20173;-44
2022/08/21 04:01:56;;;;;;;;;;;;;;;25.39;49.54;99715.44;2033855;29;19919;-42
2022/08/21 04:02:56;;;;;;;;;;;;;;;25.37;49.34;99709.25;2034417;29;20039;-43
2022/08/21 04:03:56;;;;;;;;;;;;;;;25.38;49.34;99715.63;2032145;29;19954;-42
2022/08/21 04:04:56;;;;;;;;;;;;;;;25.38;49.33;99715.63;2032264;29;20341;-42
2022/08/21 04:05:57;;;;;;;;;;;;;;;25.38;49.58;99710.97;2030936;29;19999;-44
2022/08/21 04:06:58;;;;;;;;;;;;;;;25.38;49.53;99710.09;2034273;29;19915;-43
2022/08/21 04:08:00;;;;;;;;;;;;;;;25.38;49.23;99704.59;2029093;29;19923;-49
2022/08/21 04:09:00;;;;;;;;;;;;;;;25.38;49.41;99707.34;2033213;29;19919;-43
2022/08/21 04:10:01;;;;;;;;;;;;;;;25.38;49.39;99710.09;2033086;29;20097;-42
2022/08/21 04:11:01;;;;;;;;;;;;;;;25.38;49.44;99710.09;2026813;29;20124;-45
2022/08/21 04:12:03;;;;;;;;;;;;;;;25.37;49.54;99713.94;2021041;29;20403;-42
2022/08/21 04:13:04;;;;;;;;;;;;;;;25.37;49.48;99712.00;2032974;29;19943;-43
2022/08/21 04:14:04;;;;;;;;;;;;;;;25.38;49.43;99718.38;2024402;29;20480;-45
2022/08/21 04:15:04;;;;;;;;;;;;;;;25.38;49.36;99715.63;2024952;29;20476;-43
2022/08/21 04:16:05;;;;;;;;;;;;;;;25.38;49.24;99715.63;2025670;29;19943;-42
2022/08/21 04:17:05;;;;;;;;;;;;;;;25.38;49.39;99721.13;2024835;29;20399;-43
2022/08/21 04:18:05;;;;;;;;;;;;;;;25.37;49.21;99728.56;2030443;29;20772;-42
2022/08/21 04:19:06;;;;;;;;;;;;;;;25.38;49.32;99721.13;2034636;29;19982;-42
2022/08/21 04:20:07;;;;;;;;;;;;;;;25.38;49.21;99715.63;2037549;29;20407;-43
2022/08/21 04:21:09;;;;;;;;;;;;;;;25.39;49.40;99722.88;2036995;29;19919;-44
2022/08/21 04:22:10;;;;;;;;;;;;;;;25.39;49.40;99722.88;2034106;29;20032;-42
2022/08/21 04:23:10;;;;;;;;;;;;;;;25.38;49.28;99724.78;2031343;29;19927;-41
2022/08/21 04:24:10;;;;;;;;;;;;;;;25.38;49.25;99726.66;2029153;29;19926;-43
2022/08/21 04:25:11;;;;;;;;;;;;;;;25.38;49.47;99726.66;2035304;29;20347;-42
2022/08/21 04:26:12;;;;;;;;;;;;;;;25.37;49.23;99723.06;2035634;29;20033;-44
2022/08/21 04:27:12;;;;;;;;;;;;;;;25.39;49.21;99731.16;2043706;29;19910;-43
2022/08/21 04:28:12;;;;;;;;;;;;;;;25.38;49.32;99730.28;2036896;29;19925;-43
2022/08/21 04:29:13;;;;;;;;;;;;;;;25.38;49.52;99732.19;2035875;29;19915;-42
2022/08/21 04:30:14;;;;;;;;;;;;;;;25.38;49.18;99730.28;2041082;29;19957;-43
2022/08/21 04:31:14;;;;;;;;;;;;;;;25.38;49.21;99732.19;2036988;29;19919;-42
2022/08/21 04:32:21;;;;;;;;;;;;;;;25.38;49.23;99732.19;2035456;29;19919;-42
2022/08/21 04:33:21;;;;;;;;;;;;;;;25.38;49.21;99733.06;2036982;29;20117;-42
2022/08/21 04:34:22;;;;;;;;;;;;;;;25.38;49.21;99734.94;2033871;29;19926;-44
2022/08/21 04:35:22;;;;;;;;;;;;;;;25.38;49.30;99732.19;2043697;29;20606;-44
2022/08/21 04:36:22;;;;;;;;;;;;;;;25.38;49.37;99738.56;2037348;29;20188;-43
2022/08/21 04:37:23;;;;;;;;;;;;;;;25.38;49.26;99726.66;2041281;29;19922;-43
2022/08/21 04:38:24;;;;;;;;;;;;;;;25.38;49.21;99726.66;2041426;29;19914;-45
2022/08/21 04:39:24;;;;;;;;;;;;;;;25.38;49.17;99729.41;2035797;29;19930;-43
2022/08/21 04:40:26;;;;;;;;;;;;;;;25.36;49.44;99735.16;2028261;29;19915;-42
2022/08/21 04:41:27;;;;;;;;;;;;;;;25.37;49.24;99730.47;2035155;29;20098;-44
2022/08/21 04:42:28;;;;;;;;;;;;;;;25.37;49.25;99730.47;2035802;29;19919;-42
2022/08/21 04:43:28;;;;;;;;;;;;;;;25.36;49.40;99726.03;2034569;29;19931;-41
2022/08/21 04:44:28;;;;;;;;;;;;;;;25.36;49.28;99728.78;2032327;29;20407;-43
2022/08/21 04:45:33;;;;;;;;;;;;;;;25.37;49.32;99730.47;2035014;29;19918;-43
2022/08/21 04:46:34;;;;;;;;;;;;;;;25.35;49.26;99741.72;2034261;29;19911;-45
2022/08/21 04:47:34;;;;;;;;;;;;;;;25.35;49.42;99732.59;2035975;29;20697;-43
2022/08/21 04:48:34;;;;;;;;;;;;;;;25.35;49.21;99736.19;2035256;29;19945;-42
2022/08/21 04:49:35;;;;;;;;;;;;;;;25.36;49.37;99742.59;2033923;29;19973;-42
2022/08/21 04:50:42;;;;;;;;;;;;;;;25.36;49.40;99745.34;2026822;29;19911;-43
2022/08/21 04:51:43;;;;;;;;;;;;;;;25.35;49.28;99743.63;2031630;29;19930;-43
2022/08/21 04:52:44;;;;;;;;;;;;;;;25.35;49.16;99744.47;2033017;29;19930;-42
2022/08/21 04:53:45;;;;;;;;;;;;;;;25.36;49.37;99748.94;2034573;29;20318;-42
2022/08/21 04:54:45;;;;;;;;;;;;;;;25.35;49.46;99743.63;2034967;29;19939;-42
2022/08/21 04:55:47;;;;;;;;;;;;;;;25.36;49.50;99745.34;2033094;29;19929;-43
2022/08/21 04:56:49;;;;;;;;;;;;;;;25.36;49.20;99745.34;2034555;29;19934;-42
2022/08/21 04:57:50;;;;;;;;;;;;;;;25.35;49.21;99751.91;2035088;29;19919;-43
2022/08/21 04:58:52;;;;;;;;;;;;;;;25.36;49.23;99750.88;2035860;29;19946;-45
2022/08/21 04:59:53;;;;;;;;;;;;;;;25.35;49.31;99749.97;2035575;29;19957;-44
2022/08/21 05:00:55;;;;;;;;;;;;;;;25.35;49.24;99754.66;2033715;29;19930;-43
2022/08/21 05:01:56;;;;;;;;;;;;;;;25.36;49.31;99750.88;2035525;29;19919;-44
2022/08/21 05:02:58;;;;;;;;;;;;;;;25.35;49.17;99749.97;2035688;29;19915;-43
2022/08/21 05:04:00;;;;;;;;;;;;;;;25.35;49.34;99754.66;2035108;29;19919;-43
2022/08/21 05:05:00;;;;;;;;;;;;;;;25.36;49.16;99750.88;2035305;29;20792;-43
2022/08/21 05:06:05;;;;;;;;;;;;;;;25.35;49.20;99749.97;2035007;29;19925;-41
2022/08/21 05:07:06;;;;;;;;;;;;;;;25.35;49.19;99755.50;2036535;29;19925;-42
2022/08/21 05:08:11;;;;;;;;;;;;;;;25.35;49.33;99754.66;2035242;29;20301;-43
2022/08/21 05:09:13;;;;;;;;;;;;;;;25.35;49.43;99744.47;2034729;29;19918;-41
2022/08/21 05:10:14;;;;;;;;;;;;;;;25.35;49.20;99755.50;2026423;29;19979;-42
2022/08/21 05:11:14;;;;;;;;;;;;;;;25.35;49.26;99751.91;2027521;29;19938;-43
2022/08/21 05:12:15;;;;;;;;;;;;;;;25.36;49.37;99759.13;2024018;29;19931;-43
2022/08/21 05:13:15;;;;;;;;;;;;;;;25.36;49.17;99753.63;2018805;29;20044;-43
2022/08/21 05:14:16;;;;;;;;;;;;;;;25.35;49.52;99757.41;2039283;29;20091;-42
2022/08/21 05:15:16;;;;;;;;;;;;;;;25.36;49.17;99759.13;2039999;29;19938;-42
2022/08/21 05:16:17;;;;;;;;;;;;;;;25.36;49.30;99756.38;2035439;29;20172;-42
2022/08/21 05:17:17;;;;;;;;;;;;;;;25.34;49.33;99753.81;2035271;29;19910;-42
2022/08/21 05:18:17;;;;;;;;;;;;;;;25.35;49.35;99749.13;2034418;29;19919;-42